Terminal Aerodrome Forecast
Issued by NWS

Home | Current Version | Previous Version | Text Only | Print | Product List | Glossary On
Versions: 1 2 3 4 5 6 7 8 9 10 11 12 13 14 15 16 17 18 19 20 21 22 23 24 25 26 27 28 29 30 31 32
475
FTUS46 KLOX 200258 AAA
TAFLAX
TAF AMD
KLAX 200258Z 2003/2106 26010KT P6SM BKN014
     FM200500 VRB03KT P6SM OVC015
     FM201400 13005KT P6SM OVC020
     FM201900 25010KT P6SM SCT025
     FM210100 24007KT P6SM OVC015=

USA.gov is the U.S. government's official web portal to all federal, state and local government web resources and services.